createdAt,value
2017-11-14T00:01:58.115Z,10.68
2017-11-14T00:04:25.677Z,7.22
2017-11-14T00:06:54.634Z,9.70
2017-11-14T00:09:22.124Z,12.30
2017-11-14T00:11:49.579Z,7.82
2017-11-14T00:14:17.037Z,5.30
2017-11-14T00:16:44.495Z,6.80
2017-11-14T00:19:11.949Z,8.20
2017-11-14T00:21:39.408Z,7.57
2017-11-14T00:24:06.875Z,7.62
2017-11-14T00:26:34.343Z,6.03
2017-11-14T00:29:02.592Z,6.30
2017-11-14T00:31:30.047Z,6.78
2017-11-14T00:33:57.510Z,5.65
2017-11-14T00:36:24.980Z,5.10
2017-11-14T00:38:52.438Z,6.37
2017-11-14T00:41:20.670Z,5.90
2017-11-14T00:43:48.136Z,7.22
2017-11-14T00:46:15.595Z,6.35
2017-11-14T00:48:43.058Z,5.82
2017-11-14T00:51:10.626Z,7.12
2017-11-14T00:53:38.073Z,5.30
2017-11-14T00:56:05.533Z,7.07
2017-11-14T00:58:32.989Z,5.53
2017-11-14T01:01:00.451Z,5.65
2017-11-14T01:03:28.014Z,5.62
2017-11-14T01:05:55.477Z,8.73
2017-11-14T01:08:22.937Z,7.85
2017-11-14T01:10:50.393Z,6.55
2017-11-14T01:13:17.858Z,9.43
2017-11-14T01:15:46.078Z,5.65
2017-11-14T01:18:13.545Z,6.30
2017-11-14T01:20:41.001Z,3.90
2017-11-14T01:23:08.480Z,8.10
2017-11-14T01:25:35.948Z,7.00
2017-11-14T01:28:03.402Z,7.22
2017-11-14T01:30:30.860Z,6.65
2017-11-14T01:32:58.312Z,10.40
2017-11-14T01:35:25.784Z,7.50
2017-11-14T01:37:53.999Z,5.80
2017-11-14T01:40:24.392Z,6.10
2017-11-14T01:42:52.614Z,7.80
2017-11-14T01:45:20.088Z,10.45
2017-11-14T01:47:47.549Z,10.55
2017-11-14T01:50:15.022Z,6.70
2017-11-14T01:52:43.264Z,16.35
2017-11-14T01:55:10.727Z,9.65
2017-11-14T01:57:38.192Z,8.93
2017-11-14T02:00:05.750Z,7.53
2017-11-14T02:02:33.206Z,8.23
2017-11-14T02:05:00.690Z,5.93
2017-11-14T02:07:28.903Z,6.43
2017-11-14T02:09:56.395Z,10.45
2017-11-14T02:12:23.949Z,9.60
2017-11-14T02:14:51.410Z,10.13
2017-11-14T02:17:18.865Z,6.97
2017-11-14T02:19:46.326Z,12.30
2017-11-14T02:22:13.808Z,11.68
2017-11-14T02:24:42.127Z,9.57
2017-11-14T02:27:10.383Z,7.70
2017-11-14T02:29:37.832Z,8.73
2017-11-14T02:32:05.306Z,12.95
2017-11-14T02:34:32.780Z,10.02
2017-11-14T02:37:00.234Z,10.55
2017-11-14T02:39:27.686Z,12.07
2017-11-14T02:41:55.143Z,6.32
2017-11-14T02:44:22.616Z,11.55
2017-11-14T02:46:50.096Z,12.90
2017-11-14T02:49:18.362Z,11.38
2017-11-14T02:51:45.830Z,14.70
2017-11-14T02:54:13.285Z,8.38
2017-11-14T02:56:41.517Z,11.38
2017-11-14T02:59:09.013Z,10.55
2017-11-14T03:01:36.557Z,8.10
2017-11-14T03:04:04.017Z,12.93
2017-11-14T03:06:31.491Z,10.82
2017-11-14T03:08:58.953Z,11.52
2017-11-14T03:11:26.496Z,12.98
2017-11-14T03:13:53.969Z,12.80
2017-11-14T03:16:22.197Z,13.25
2017-11-14T03:18:49.685Z,14.90
2017-11-14T03:21:17.914Z,16.92
2017-11-14T03:23:45.429Z,17.58
2017-11-14T03:26:12.898Z,17.77
2017-11-14T03:28:41.148Z,12.13
2017-11-14T03:31:10.121Z,14.00
2017-11-14T03:33:37.617Z,15.45
2017-11-14T03:36:05.865Z,14.15
2017-11-14T03:38:33.331Z,12.93
2017-11-14T03:41:00.792Z,12.10
2017-11-14T03:43:28.349Z,7.62
2017-11-14T03:45:55.806Z,14.02
2017-11-14T03:48:23.362Z,9.40
2017-11-14T03:50:50.836Z,18.20
2017-11-14T03:53:18.295Z,14.57
2017-11-14T03:55:46.541Z,11.63
2017-11-14T03:58:14.126Z,11.50
2017-11-14T04:00:41.574Z,13.18
2017-11-14T04:03:09.131Z,10.55
2017-11-14T04:05:36.580Z,15.38
2017-11-14T04:08:04.133Z,14.55
2017-11-14T04:10:31.585Z,11.70
2017-11-14T04:12:59.046Z,16.80
2017-11-14T04:15:26.503Z,11.77
2017-11-14T04:17:54.061Z,10.95
2017-11-14T04:20:21.523Z,12.95
2017-11-14T04:22:48.991Z,14.65
2017-11-14T04:25:16.549Z,14.05
2017-11-14T04:27:44.847Z,13.82
2017-11-14T04:30:13.092Z,13.38
2017-11-14T04:32:40.664Z,12.05
2017-11-14T04:35:08.273Z,21.10
2017-11-14T04:37:35.743Z,16.23
2017-11-14T04:40:03.199Z,18.60
2017-11-14T04:42:30.667Z,16.95
2017-11-14T04:44:58.143Z,15.20
2017-11-14T04:47:25.589Z,15.68
2017-11-14T04:49:53.070Z,12.30
2017-11-14T04:52:21.307Z,20.70
2017-11-14T04:54:48.786Z,19.10
2017-11-14T04:57:16.232Z,14.77
2017-11-14T04:59:43.690Z,19.80
2017-11-14T05:02:11.264Z,14.82
2017-11-14T05:04:38.717Z,17.12
2017-11-14T05:07:06.192Z,17.98
2017-11-14T05:09:34.439Z,14.95
2017-11-14T05:12:01.904Z,17.25
2017-11-14T05:14:29.376Z,19.65
2017-11-14T05:16:57.612Z,16.90
2017-11-14T05:19:25.082Z,14.85
2017-11-14T05:21:52.541Z,19.15
2017-11-14T05:24:20.061Z,15.57
2017-11-14T05:26:47.520Z,16.42
2017-11-14T05:29:15.026Z,21.10
2017-11-14T05:31:42.511Z,23.67
2017-11-14T05:34:10.014Z,25.27
2017-11-14T05:36:37.589Z,27.90
2017-11-14T05:39:05.058Z,28.90
2017-11-14T05:41:32.601Z,27.73
2017-11-14T05:44:00.080Z,25.08
2017-11-14T05:46:28.320Z,26.40
2017-11-14T05:48:55.787Z,26.50
2017-11-14T05:51:23.238Z,25.40
2017-11-14T05:53:50.824Z,26.17
2017-11-14T05:56:18.292Z,25.33
2017-11-14T05:58:46.525Z,25.95
2017-11-14T06:01:14.010Z,23.85
2017-11-14T06:03:41.505Z,20.50
2017-11-14T06:06:08.971Z,24.42
2017-11-14T06:08:36.447Z,24.90
2017-11-14T06:11:03.899Z,19.65
2017-11-14T06:13:31.452Z,23.23
2017-11-14T06:15:59.001Z,29.37
2017-11-14T06:18:26.461Z,20.42
2017-11-14T06:20:53.929Z,35.13
2017-11-14T06:23:21.401Z,27.33
2017-11-14T06:25:48.882Z,40.58
2017-11-14T06:28:16.350Z,31.17
2017-11-14T06:30:44.586Z,33.88
2017-11-14T06:33:12.059Z,30.95
2017-11-14T06:35:39.594Z,40.45
2017-11-14T06:38:07.066Z,31.75
2017-11-14T06:40:34.533Z,34.50
2017-11-14T06:43:01.991Z,33.53
2017-11-14T06:45:29.452Z,29.75
2017-11-14T06:47:56.914Z,33.45
2017-11-14T06:50:24.382Z,38.92
2017-11-14T06:52:52.646Z,32.50
2017-11-14T06:55:20.109Z,45.63
2017-11-14T06:57:48.358Z,34.60
2017-11-14T07:00:15.813Z,27.27
2017-11-14T07:02:43.299Z,36.90
2017-11-14T07:05:11.586Z,37.47
2017-11-14T07:07:39.979Z,70.45
2017-11-14T07:10:07.448Z,60.20
2017-11-14T07:12:34.961Z,27.98
2017-11-14T07:15:03.199Z,66.47
2017-11-14T07:17:30.688Z,46.08
2017-11-14T07:19:58.296Z,72.28
2017-11-14T07:22:25.764Z,51.20
2017-11-14T07:24:53.313Z,76.87
2017-11-14T07:27:20.768Z,39.42
2017-11-14T07:29:48.235Z,54.90
2017-11-14T07:32:15.729Z,79.32
2017-11-14T07:34:43.410Z,44.47
2017-11-14T07:37:11.706Z,45.03
2017-11-14T07:39:39.963Z,61.90
2017-11-14T07:42:08.221Z,40.38
2017-11-14T07:44:35.787Z,43.72
2017-11-14T07:47:03.580Z,62.97
2017-11-14T07:49:31.038Z,72.00
2017-11-14T07:51:58.497Z,54.00
2017-11-14T07:54:26.025Z,65.75
2017-11-14T07:56:54.263Z,59.95
2017-11-14T07:59:21.733Z,50.00
2017-11-14T08:01:49.255Z,61.33
2017-11-14T08:04:16.709Z,43.58
2017-11-14T08:06:44.211Z,46.92
2017-11-14T08:09:11.829Z,49.63
2017-11-14T08:11:39.343Z,45.05
2017-11-14T08:14:06.802Z,47.72
2017-11-14T08:16:35.120Z,50.90
2017-11-14T08:19:02.613Z,54.30
2017-11-14T08:21:30.070Z,44.80
2017-11-14T08:23:57.555Z,47.50
2017-11-14T08:26:25.795Z,46.37
2017-11-14T08:28:53.280Z,52.47
2017-11-14T08:31:20.796Z,40.97
2017-11-14T08:33:48.250Z,44.90
2017-11-14T08:36:16.067Z,32.95
2017-11-14T08:38:44.301Z,42.30
2017-11-14T08:41:11.887Z,37.28
2017-11-14T08:43:39.459Z,37.17
2017-11-14T08:46:06.921Z,56.72
2017-11-14T08:48:35.188Z,33.78
2017-11-14T08:51:03.426Z,39.90
2017-11-14T08:53:30.885Z,39.70
2017-11-14T08:55:58.426Z,37.13
2017-11-14T08:58:25.911Z,45.33
2017-11-14T09:00:53.694Z,38.58
2017-11-14T09:03:21.155Z,41.90
2017-11-14T09:05:49.414Z,33.88
2017-11-14T09:08:16.875Z,37.38
2017-11-14T09:10:44.430Z,30.45
2017-11-14T09:13:12.004Z,33.65
2017-11-14T09:15:40.252Z,39.45
2017-11-14T09:18:07.738Z,36.25
2017-11-14T09:20:35.961Z,38.00
2017-11-14T09:23:03.426Z,36.70
2017-11-14T09:25:30.892Z,35.65
2017-11-14T09:27:58.353Z,36.35
2017-11-14T09:30:25.812Z,37.40
2017-11-14T09:32:53.383Z,30.90
2017-11-14T09:35:20.842Z,38.10
2017-11-14T09:37:48.403Z,29.90
2017-11-14T09:40:15.870Z,35.00
2017-11-14T09:42:44.093Z,36.55
2017-11-14T09:45:11.559Z,33.83
2017-11-14T09:47:39.013Z,36.80
2017-11-14T09:50:06.489Z,39.63
2017-11-14T09:52:34.065Z,30.85
2017-11-14T09:55:01.542Z,36.20
2017-11-14T09:57:29.761Z,32.33
2017-11-14T09:59:57.225Z,42.22
2017-11-14T10:02:24.697Z,30.55
2017-11-14T10:04:52.168Z,34.75
2017-11-14T10:07:19.644Z,33.72
2017-11-14T10:09:47.874Z,32.85
2017-11-14T10:12:15.441Z,33.70
2017-11-14T10:14:42.905Z,37.38
2017-11-14T10:17:10.359Z,43.87
2017-11-14T10:19:37.845Z,32.53
2017-11-14T10:22:06.082Z,36.30
2017-11-14T10:24:33.538Z,37.47
2017-11-14T10:27:00.999Z,38.45
2017-11-14T10:29:28.463Z,34.53
2017-11-14T10:31:55.917Z,32.67
2017-11-14T10:34:23.373Z,36.65
2017-11-14T10:36:50.844Z,37.30
2017-11-14T10:39:18.308Z,30.42
2017-11-14T10:41:46.965Z,30.95
2017-11-14T10:44:15.344Z,38.28
2017-11-14T10:46:42.901Z,31.73
2017-11-14T10:49:10.375Z,34.25
2017-11-14T10:51:38.957Z,32.00
2017-11-14T10:54:07.187Z,45.35
2017-11-14T10:56:34.684Z,42.65
2017-11-14T10:59:02.197Z,39.05
2017-11-14T11:01:29.668Z,32.03
2017-11-14T11:03:57.139Z,35.58
2017-11-14T11:06:24.722Z,33.72
2017-11-14T11:08:52.199Z,30.25
2017-11-14T11:11:20.459Z,32.65
2017-11-14T11:13:48.010Z,30.70
2017-11-14T11:16:15.487Z,30.92
2017-11-14T11:18:43.752Z,26.87
2017-11-14T11:21:11.208Z,33.35
2017-11-14T11:23:39.448Z,33.10
2017-11-14T11:26:06.918Z,30.77
2017-11-14T11:28:34.393Z,31.83
2017-11-14T11:31:01.846Z,27.58
2017-11-14T11:33:29.345Z,27.60
2017-11-14T11:35:58.413Z,29.30
2017-11-14T11:38:26.648Z,28.12
2017-11-14T11:40:54.227Z,26.37
2017-11-14T11:43:21.709Z,28.48
2017-11-14T11:45:49.968Z,28.60
2017-11-14T11:48:17.429Z,23.70
2017-11-14T11:50:45.653Z,27.60
2017-11-14T11:53:13.106Z,29.80
2017-11-14T11:55:40.569Z,26.25
2017-11-14T11:58:08.035Z,30.35
2017-11-14T12:00:35.504Z,29.25
2017-11-14T12:03:02.991Z,29.67
2017-11-14T12:05:31.241Z,31.40
2017-11-14T12:07:58.709Z,26.50
2017-11-14T12:10:26.174Z,27.17
2017-11-14T12:12:54.407Z,27.55
2017-11-14T12:15:21.904Z,31.60
2017-11-14T12:17:50.153Z,25.60
2017-11-14T12:20:17.740Z,29.48
2017-11-14T12:22:45.969Z,31.55
2017-11-14T12:25:13.429Z,29.80
2017-11-14T12:27:40.920Z,28.95
2017-11-14T12:30:08.389Z,28.85
2017-11-14T12:32:36.630Z,28.25
2017-11-14T12:35:04.122Z,24.67
2017-11-14T12:37:32.348Z,29.15
2017-11-14T12:39:59.820Z,29.20
2017-11-14T12:42:27.284Z,29.12
2017-11-14T12:44:54.749Z,35.92
2017-11-14T12:47:22.300Z,26.45
2017-11-14T12:49:49.768Z,28.08
2017-11-14T12:52:17.321Z,25.75
2017-11-14T12:54:44.777Z,23.60
2017-11-14T12:57:13.012Z,25.73
2017-11-14T12:59:40.511Z,24.58
2017-11-14T13:02:08.079Z,25.67
2017-11-14T13:04:35.631Z,23.98
2017-11-14T13:07:03.090Z,23.73
2017-11-14T13:09:30.563Z,21.60
2017-11-14T13:11:58.820Z,27.33
2017-11-14T13:14:26.383Z,23.87
2017-11-14T13:16:53.928Z,19.12
2017-11-14T13:19:21.411Z,33.65
2017-11-14T13:21:49.674Z,24.67
2017-11-14T13:24:17.129Z,26.02
2017-11-14T13:26:44.595Z,15.57
2017-11-14T13:29:12.825Z,22.50
2017-11-14T13:31:40.301Z,17.48
2017-11-14T13:34:07.780Z,24.58
2017-11-14T13:36:35.343Z,23.48
2017-11-14T13:39:03.601Z,16.23
2017-11-14T13:41:31.061Z,15.30
2017-11-14T13:43:58.539Z,13.75
2017-11-14T13:46:26.761Z,19.73
2017-11-14T13:48:54.214Z,15.85
2017-11-14T13:51:21.701Z,14.68
2017-11-14T13:53:49.154Z,7.37
2017-11-14T13:56:16.715Z,15.10
2017-11-14T13:58:44.183Z,6.70
2017-11-14T14:01:13.180Z,8.05
2017-11-14T14:03:40.842Z,6.78
2017-11-14T14:06:09.081Z,8.48
2017-11-14T14:08:36.639Z,5.93
2017-11-14T14:11:04.095Z,7.95
2017-11-14T14:13:31.566Z,11.90
2017-11-14T14:15:59.140Z,12.82
2017-11-14T14:18:26.619Z,8.02
2017-11-14T14:20:54.873Z,15.88
2017-11-14T14:23:22.344Z,6.80
2017-11-14T14:25:49.807Z,7.68
2017-11-14T14:28:18.047Z,14.43
2017-11-14T14:30:45.523Z,6.80
2017-11-14T14:33:13.777Z,19.48
2017-11-14T14:35:41.269Z,2.28
2017-11-14T14:38:09.510Z,5.45
2017-11-14T14:40:36.970Z,18.75
2017-11-14T14:43:04.489Z,11.00
2017-11-14T14:45:31.961Z,11.25
2017-11-14T14:47:59.442Z,4.72
2017-11-14T14:50:26.914Z,5.22
2017-11-14T14:52:54.387Z,7.28
2017-11-14T14:55:22.637Z,7.03
2017-11-14T14:57:50.098Z,9.48
2017-11-14T15:00:17.568Z,4.55
2017-11-14T15:02:45.811Z,11.43
2017-11-14T15:05:13.286Z,9.75
2017-11-14T15:07:40.737Z,10.07
2017-11-14T15:10:08.304Z,6.07
2017-11-14T15:12:36.544Z,13.32
2017-11-14T15:15:04.009Z,9.82
2017-11-14T15:17:31.461Z,9.95
2017-11-14T15:19:58.950Z,10.75
2017-11-14T15:22:26.411Z,11.20
2017-11-14T15:24:53.901Z,12.05
2017-11-14T15:27:21.372Z,9.45
2017-11-14T15:29:48.864Z,5.75
2017-11-14T15:32:16.322Z,6.37
2017-11-14T15:34:43.781Z,15.00
2017-11-14T15:37:11.242Z,10.43
2017-11-14T15:39:38.703Z,11.40
2017-11-14T15:42:06.264Z,4.90
2017-11-14T15:44:33.726Z,10.52
2017-11-14T15:47:01.946Z,7.10
2017-11-14T15:49:29.440Z,8.13
2017-11-14T15:51:56.936Z,10.68
2017-11-14T15:54:25.158Z,13.88
2017-11-14T15:56:52.612Z,13.50
2017-11-14T15:59:20.103Z,9.23
2017-11-14T16:01:48.371Z,13.07
2017-11-14T16:04:17.407Z,8.25
2017-11-14T16:06:44.880Z,8.68
2017-11-14T16:09:12.340Z,3.10
2017-11-14T16:11:39.789Z,8.02
2017-11-14T16:14:07.259Z,8.27
2017-11-14T16:16:34.740Z,7.00
2017-11-14T16:19:02.210Z,7.82
2017-11-14T16:21:30.443Z,7.20
2017-11-14T16:23:57.928Z,11.57
2017-11-14T16:26:25.395Z,11.80
2017-11-14T16:28:52.860Z,9.90
2017-11-14T16:31:21.135Z,14.43
2017-11-14T16:33:49.385Z,4.55
2017-11-14T16:36:16.863Z,7.32
2017-11-14T16:38:45.119Z,5.35
2017-11-14T16:41:12.572Z,5.37
2017-11-14T16:43:40.036Z,7.32
2017-11-14T16:46:08.269Z,9.57
2017-11-14T16:48:35.724Z,7.93
2017-11-14T16:51:03.217Z,5.65
2017-11-14T16:53:30.661Z,12.37
2017-11-14T16:55:58.137Z,6.57
2017-11-14T16:58:25.657Z,7.97
2017-11-14T17:00:53.113Z,10.82
2017-11-14T17:03:20.615Z,6.28
2017-11-14T17:05:48.084Z,7.90
2017-11-14T17:08:16.308Z,7.75
2017-11-14T17:10:43.792Z,8.45
2017-11-14T17:13:17.805Z,8.05
2017-11-14T17:15:45.272Z,10.68
2017-11-14T17:18:12.721Z,11.73
2017-11-14T17:20:40.235Z,9.95
2017-11-14T17:23:07.690Z,5.70
2017-11-14T17:25:35.159Z,9.00
2017-11-14T17:28:02.617Z,3.62
2017-11-14T17:30:30.081Z,6.40
2017-11-14T17:32:57.623Z,10.07
2017-11-14T17:35:25.087Z,14.93
2017-11-14T17:37:52.555Z,8.98
2017-11-14T17:40:20.005Z,16.52
2017-11-14T17:42:47.465Z,5.78
2017-11-14T17:45:14.913Z,9.95
2017-11-14T17:47:42.367Z,5.87
2017-11-14T17:50:09.921Z,10.20
2017-11-14T17:52:37.383Z,9.52
2017-11-14T17:55:05.499Z,5.87
2017-11-14T17:57:32.960Z,7.82
2017-11-14T18:00:01.220Z,6.40
2017-11-14T18:02:28.750Z,6.87
2017-11-14T18:04:56.238Z,3.85
2017-11-14T18:07:23.796Z,7.12
2017-11-14T18:09:51.312Z,10.35
2017-11-14T18:12:18.804Z,7.78
2017-11-14T18:14:46.277Z,4.57
2017-11-14T18:17:13.822Z,7.28
2017-11-14T18:19:41.384Z,5.20
2017-11-14T18:22:08.848Z,18.12
2017-11-14T18:24:36.312Z,10.63
2017-11-14T18:27:03.764Z,5.85
2017-11-14T18:29:31.235Z,5.43
2017-11-14T18:31:59.471Z,10.00
2017-11-14T18:34:26.955Z,11.32
2017-11-14T18:36:54.414Z,16.90
2017-11-14T18:39:21.933Z,13.57
2017-11-14T18:41:49.410Z,9.60
2017-11-14T18:44:16.859Z,7.93
2017-11-14T18:46:44.416Z,7.75
2017-11-14T18:49:12.693Z,11.20
2017-11-14T18:51:40.187Z,9.82
2017-11-14T18:54:08.442Z,9.60
2017-11-14T18:56:36.016Z,10.25
2017-11-14T18:59:03.577Z,6.07
2017-11-14T19:01:31.811Z,3.37
2017-11-14T19:03:59.255Z,8.57
2017-11-14T19:06:26.767Z,10.50
2017-11-14T19:08:54.986Z,18.90
2017-11-14T19:11:22.442Z,9.07
2017-11-14T19:13:49.913Z,32.50
2017-11-14T19:16:17.381Z,16.05
2017-11-14T19:18:44.864Z,8.90
2017-11-14T19:21:13.122Z,9.18
2017-11-14T19:23:40.586Z,10.32
2017-11-14T19:26:08.070Z,11.98
2017-11-14T19:28:36.473Z,5.78
2017-11-14T19:31:04.972Z,9.32
2017-11-14T19:33:32.439Z,7.68
2017-11-14T19:35:59.912Z,9.52
2017-11-14T19:38:27.365Z,9.38
2017-11-14T19:40:54.851Z,9.25
2017-11-14T19:43:23.121Z,10.45
2017-11-14T19:45:51.356Z,10.23
2017-11-14T19:48:18.818Z,8.85
2017-11-14T19:50:46.279Z,7.65
2017-11-14T19:53:13.742Z,15.48
2017-11-14T19:55:41.195Z,9.10
2017-11-14T19:58:08.662Z,6.68
2017-11-14T20:00:36.132Z,7.57
2017-11-14T20:03:04.357Z,8.23
2017-11-14T20:05:31.830Z,11.48
2017-11-14T20:07:59.306Z,14.63
2017-11-14T20:10:26.770Z,12.23
2017-11-14T20:12:54.238Z,9.27
2017-11-14T20:15:22.503Z,13.00
2017-11-14T20:17:50.053Z,10.57
2017-11-14T20:20:17.506Z,6.60
2017-11-14T20:22:44.958Z,7.97
2017-11-14T20:25:12.443Z,9.95
2017-11-14T20:27:39.925Z,9.15
2017-11-14T20:30:07.392Z,11.85
2017-11-14T20:32:34.857Z,10.25
2017-11-14T20:35:02.332Z,10.73
2017-11-14T20:37:29.803Z,16.85
2017-11-14T20:39:58.769Z,11.10
2017-11-14T20:42:26.249Z,8.23
2017-11-14T20:44:53.711Z,17.55
2017-11-14T20:47:21.170Z,12.35
2017-11-14T20:49:48.641Z,12.63
2017-11-14T20:52:16.902Z,8.98
2017-11-14T20:54:44.455Z,16.35
2017-11-14T20:57:11.920Z,8.95
2017-11-14T20:59:39.388Z,15.05
2017-11-14T21:02:06.837Z,14.73
2017-11-14T21:04:34.306Z,24.80
2017-11-14T21:07:02.542Z,9.23
2017-11-14T21:09:30.005Z,13.55
2017-11-14T21:11:57.527Z,13.65
2017-11-14T21:14:24.994Z,15.38
2017-11-14T21:16:52.463Z,12.50
2017-11-14T21:19:19.925Z,20.92
2017-11-14T21:21:47.517Z,11.55
2017-11-14T21:24:15.763Z,17.52
2017-11-14T21:26:43.360Z,10.40
2017-11-14T21:29:11.620Z,10.40
2017-11-14T21:31:39.168Z,15.45
2017-11-14T21:34:06.640Z,9.18
2017-11-14T21:36:34.887Z,10.15
2017-11-14T21:39:02.349Z,16.10
2017-11-14T21:41:29.877Z,9.95
2017-11-14T21:43:57.350Z,14.02
2017-11-14T21:46:24.809Z,12.77
2017-11-14T21:48:52.279Z,13.82
2017-11-14T21:51:19.801Z,17.58
2017-11-14T21:53:47.770Z,25.88
2017-11-14T21:56:15.270Z,16.95
2017-11-14T21:58:42.751Z,14.93
2017-11-14T22:01:10.990Z,17.25
2017-11-14T22:03:38.618Z,18.30
2017-11-14T22:06:06.089Z,15.77
2017-11-14T22:08:33.555Z,15.13
2017-11-14T22:11:01.043Z,11.63
2017-11-14T22:13:28.600Z,15.27
2017-11-14T22:15:56.058Z,16.80
2017-11-14T22:18:23.539Z,16.12
2017-11-14T22:20:51.766Z,21.40
2017-11-14T22:23:19.242Z,16.58
2017-11-14T22:25:46.710Z,20.20
2017-11-14T22:28:14.946Z,18.65
2017-11-14T22:30:42.410Z,12.48
2017-11-14T22:33:09.869Z,16.73
2017-11-14T22:35:37.363Z,14.82
2017-11-14T22:38:05.592Z,21.42
2017-11-14T22:40:33.052Z,19.80
2017-11-14T22:43:00.517Z,19.45
2017-11-14T22:45:27.986Z,16.48
2017-11-14T22:47:55.533Z,19.48
2017-11-14T22:50:23.000Z,20.67
2017-11-14T22:52:50.548Z,22.37
2017-11-14T22:55:18.011Z,27.13
2017-11-14T22:57:45.481Z,23.52
2017-11-14T23:00:18.927Z,19.05
2017-11-14T23:02:46.391Z,20.98
2017-11-14T23:05:13.876Z,22.35
2017-11-14T23:07:41.439Z,15.38
2017-11-14T23:10:08.889Z,16.65
2017-11-14T23:12:36.347Z,20.70
2017-11-14T23:15:03.811Z,23.12
2017-11-14T23:17:31.269Z,25.12
2017-11-14T23:19:58.725Z,20.23
2017-11-14T23:22:26.283Z,17.10
2017-11-14T23:24:53.737Z,21.70
2017-11-14T23:27:21.203Z,22.10
2017-11-14T23:29:48.759Z,22.58
2017-11-14T23:32:16.225Z,23.42
2017-11-14T23:34:44.442Z,16.50
2017-11-14T23:37:11.948Z,21.90
2017-11-14T23:39:39.412Z,22.20
2017-11-14T23:42:06.886Z,18.70
2017-11-14T23:44:35.120Z,21.75
2017-11-14T23:47:02.590Z,19.75
2017-11-14T23:49:30.054Z,23.60
2017-11-14T23:51:57.522Z,17.58
2017-11-14T23:54:25.751Z,20.33
2017-11-14T23:56:53.237Z,16.95
2017-11-14T23:59:20.881Z,17.77
